createdAt,value
2023-04-11T00:00:31.915Z,2.80
2023-04-11T00:03:01.511Z,2.77
2023-04-11T00:05:33.211Z,2.70
2023-04-11T00:08:00.837Z,2.70
2023-04-11T00:10:27.845Z,2.80
2023-04-11T00:12:56.745Z,2.87
2023-04-11T00:15:26.593Z,2.73
2023-04-11T00:17:54.954Z,2.70
2023-04-11T00:20:22.833Z,2.80
2023-04-11T00:22:53.822Z,2.70
2023-04-11T00:25:21.385Z,2.70
2023-04-11T00:27:48.856Z,2.70
2023-04-11T00:30:16.683Z,2.63
2023-04-11T00:32:46.515Z,2.73
2023-04-11T00:35:14.013Z,2.80
2023-04-11T00:37:44.045Z,2.70
2023-04-11T00:40:17.501Z,2.80
2023-04-11T00:42:45.209Z,2.67
2023-04-11T00:45:12.690Z,2.60
2023-04-11T00:47:40.988Z,2.70
2023-04-11T00:50:09.353Z,2.63
2023-04-11T00:52:38.417Z,2.60
2023-04-11T00:55:08.028Z,2.60
2023-04-11T00:57:36.323Z,2.63
2023-04-11T01:00:04.335Z,2.67
2023-04-11T01:02:33.154Z,2.67
2023-04-11T01:05:00.655Z,2.60
2023-04-11T01:07:31.274Z,2.63
2023-04-11T01:10:01.521Z,2.67
2023-04-11T01:12:30.502Z,2.67
2023-04-11T01:14:58.522Z,2.73
2023-04-11T01:17:26.302Z,2.67
2023-04-11T01:19:53.888Z,2.63
2023-04-11T01:22:26.372Z,2.67
2023-04-11T01:24:54.075Z,2.60
2023-04-11T01:27:21.745Z,2.67
2023-04-11T01:29:49.288Z,2.63
2023-04-11T01:32:16.761Z,2.63
2023-04-11T01:34:48.183Z,2.80
2023-04-11T01:37:20.722Z,2.80
2023-04-11T01:39:47.804Z,2.70
2023-04-11T01:42:15.543Z,2.70
2023-04-11T01:44:43.501Z,2.60
2023-04-11T01:47:10.841Z,2.73
2023-04-11T01:49:38.458Z,2.67
2023-04-11T01:52:05.912Z,2.60
2023-04-11T01:54:33.431Z,2.60
2023-04-11T01:57:01.465Z,2.70
2023-04-11T01:59:28.589Z,2.70
2023-04-11T02:01:56.091Z,2.70
2023-04-11T02:04:25.053Z,2.80
2023-04-11T02:06:52.538Z,2.67
2023-04-11T02:09:20.093Z,2.70
2023-04-11T02:11:47.527Z,2.63
2023-04-11T02:14:20.224Z,2.67
2023-04-11T02:16:56.224Z,2.67
2023-04-11T02:19:26.336Z,2.67
2023-04-11T02:21:53.551Z,2.67
2023-04-11T02:24:21.010Z,2.70
2023-04-11T02:26:49.216Z,2.70
2023-04-11T02:29:17.867Z,2.80
2023-04-11T02:31:45.418Z,2.80
2023-04-11T02:34:12.967Z,2.73
2023-04-11T02:36:42.251Z,2.77
2023-04-11T02:39:09.769Z,2.80
2023-04-11T02:41:40.102Z,2.80
2023-04-11T02:44:10.303Z,2.77
2023-04-11T02:46:38.384Z,2.87
2023-04-11T02:49:08.661Z,2.70
2023-04-11T02:51:36.346Z,2.70
2023-04-11T02:54:03.643Z,2.77
2023-04-11T02:56:31.512Z,2.70
2023-04-11T02:58:59.221Z,2.80
2023-04-11T03:01:27.998Z,2.80
2023-04-11T03:03:56.251Z,2.80
2023-04-11T03:06:29.477Z,2.73
2023-04-11T03:09:00.377Z,2.77
2023-04-11T03:11:28.002Z,2.73
2023-04-11T03:13:56.284Z,2.80
2023-04-11T03:16:23.673Z,2.80
2023-04-11T03:18:51.136Z,2.70
2023-04-11T03:21:18.836Z,2.70
2023-04-11T03:23:46.414Z,2.80
2023-04-11T03:26:15.781Z,2.80
2023-04-11T03:28:45.440Z,2.90
2023-04-11T03:31:17.620Z,2.83
2023-04-11T03:33:48.391Z,2.70
2023-04-11T03:36:16.601Z,2.83
2023-04-11T03:38:44.296Z,2.70
2023-04-11T03:41:11.831Z,2.80
2023-04-11T03:43:39.296Z,2.90
2023-04-11T03:46:08.622Z,2.77
2023-04-11T03:48:47.065Z,2.73
2023-04-11T03:51:15.367Z,2.80
2023-04-11T03:54:00.433Z,2.90
2023-04-11T03:56:35.552Z,2.63
2023-04-11T03:59:02.757Z,2.80
2023-04-11T04:01:39.848Z,2.70
2023-04-11T04:04:07.835Z,2.77
2023-04-11T04:06:39.740Z,2.70
2023-04-11T04:09:08.231Z,2.80
2023-04-11T04:11:47.266Z,2.70
2023-04-11T04:14:16.077Z,2.70
2023-04-11T04:16:43.710Z,2.80
2023-04-11T04:19:13.104Z,2.80
2023-04-11T04:21:45.791Z,2.80
2023-04-11T04:24:14.386Z,2.80
2023-04-11T04:26:53.476Z,2.90
2023-04-11T04:29:47.470Z,2.70
2023-04-11T04:32:30.699Z,2.77
2023-04-11T04:35:02.762Z,2.90
2023-04-11T04:37:45.199Z,2.70
2023-04-11T04:40:20.650Z,2.87
2023-04-11T04:43:01.965Z,2.70
2023-04-11T04:45:38.315Z,2.70
2023-04-11T04:48:05.860Z,2.77
2023-04-11T04:50:33.425Z,2.70
2023-04-11T04:53:01.001Z,2.90
2023-04-11T04:55:28.949Z,2.90
2023-04-11T04:57:56.216Z,2.70
2023-04-11T05:00:23.856Z,2.83
2023-04-11T05:02:54.647Z,2.87
2023-04-11T05:05:23.127Z,2.80
2023-04-11T05:07:50.761Z,2.90
2023-04-11T05:10:18.694Z,2.63
2023-04-11T05:12:46.353Z,2.80
2023-04-11T05:15:15.003Z,2.80
2023-04-11T05:17:43.160Z,2.80
2023-04-11T05:20:12.381Z,2.67
2023-04-11T05:22:42.156Z,2.70
2023-04-11T05:25:11.501Z,2.77
2023-04-11T05:27:41.805Z,2.70
2023-04-11T05:30:11.441Z,2.70
2023-04-11T05:32:40.413Z,2.70
2023-04-11T05:35:08.986Z,2.70
2023-04-11T05:37:44.839Z,2.70
2023-04-11T05:40:13.133Z,2.70
2023-04-11T05:42:40.633Z,2.80
2023-04-11T05:45:08.706Z,2.90
2023-04-11T05:47:36.188Z,2.77
2023-04-11T05:50:03.817Z,2.60
2023-04-11T05:52:30.961Z,2.73
2023-04-11T05:54:58.147Z,2.60
2023-04-11T05:57:28.330Z,2.70
2023-04-11T05:59:55.787Z,2.80
2023-04-11T06:02:23.321Z,2.60
2023-04-11T06:04:51.182Z,2.80
2023-04-11T06:07:18.711Z,2.67
2023-04-11T06:09:46.323Z,2.80
2023-04-11T06:12:13.795Z,2.80
2023-04-11T06:14:41.407Z,2.70
2023-04-11T06:17:09.458Z,2.70
2023-04-11T06:19:37.026Z,2.80
2023-04-11T06:22:04.078Z,2.70
2023-04-11T06:24:40.441Z,2.70
2023-04-11T06:27:11.518Z,2.73
2023-04-11T06:29:40.830Z,2.80
2023-04-11T06:32:08.723Z,2.70
2023-04-11T06:34:37.995Z,2.80
2023-04-11T06:37:07.493Z,2.80
2023-04-11T06:39:35.659Z,2.70
2023-04-11T06:42:03.640Z,2.80
2023-04-11T06:44:33.748Z,2.70
2023-04-11T06:47:01.589Z,2.70
2023-04-11T06:49:28.984Z,2.70
2023-04-11T06:51:58.929Z,2.70
2023-04-11T06:54:26.472Z,2.80
2023-04-11T06:56:53.494Z,2.80
2023-04-11T06:59:21.473Z,2.83
2023-04-11T07:01:50.247Z,2.77
2023-04-11T07:04:18.053Z,2.87
2023-04-11T07:06:45.984Z,2.90
2023-04-11T07:09:13.529Z,2.83
2023-04-11T07:11:41.433Z,2.83
2023-04-11T07:14:08.949Z,2.83
2023-04-11T07:16:36.449Z,2.80
2023-04-11T07:19:03.756Z,2.73
2023-04-11T07:21:32.207Z,2.90
2023-04-11T07:24:00.572Z,2.80
2023-04-11T07:26:32.035Z,2.80
2023-04-11T07:28:59.663Z,2.73
2023-04-11T07:31:27.204Z,2.80
2023-04-11T07:33:54.850Z,2.80
2023-04-11T07:36:22.092Z,2.80
2023-04-11T07:38:49.696Z,2.80
2023-04-11T07:41:16.901Z,2.80
2023-04-11T07:43:44.341Z,2.77
2023-04-11T07:46:12.106Z,2.80
2023-04-11T07:48:39.858Z,2.80
2023-04-11T07:51:06.965Z,2.80
2023-04-11T07:53:34.724Z,2.73
2023-04-11T07:56:02.111Z,2.80
2023-04-11T07:58:30.008Z,2.70
2023-04-11T08:03:41.985Z,2.80
2023-04-11T08:06:09.970Z,2.80
2023-04-11T08:08:37.432Z,2.80
2023-04-11T08:11:04.466Z,2.80
2023-04-11T08:13:31.960Z,2.77
2023-04-11T08:15:59.059Z,2.80
2023-04-11T08:18:26.062Z,2.80
2023-04-11T08:20:53.396Z,2.80
2023-04-11T08:23:21.559Z,2.77
2023-04-11T08:25:49.117Z,2.80
2023-04-11T08:28:16.327Z,2.80
2023-04-11T08:30:43.835Z,2.70
2023-04-11T08:33:12.158Z,2.80
2023-04-11T08:35:42.814Z,2.80
2023-04-11T08:38:10.531Z,2.77
2023-04-11T08:40:37.492Z,2.70
2023-04-11T08:43:11.842Z,2.80
2023-04-11T08:45:40.914Z,2.73
2023-04-11T08:48:09.357Z,2.70
2023-04-11T08:50:36.552Z,2.70
2023-04-11T08:53:04.448Z,2.80
2023-04-11T08:55:32.101Z,2.73
2023-04-11T08:57:59.554Z,2.63
2023-04-11T09:00:29.008Z,2.70
2023-04-11T09:03:04.803Z,2.70
2023-04-11T09:05:38.627Z,2.40
2023-04-11T09:08:10.256Z,2.50
2023-04-11T09:10:40.587Z,2.40
2023-04-11T09:13:23.796Z,2.40
2023-04-11T09:16:12.731Z,2.60
2023-04-11T09:18:44.733Z,2.70
2023-04-11T09:21:16.823Z,2.83
2023-04-11T09:23:44.297Z,3.00
2023-04-11T09:26:13.113Z,2.60
2023-04-11T09:28:44.741Z,2.43
2023-04-11T09:31:13.067Z,2.33
2023-04-11T09:33:55.769Z,2.57
2023-04-11T09:36:27.029Z,2.70
2023-04-11T09:38:58.485Z,2.90
2023-04-11T09:41:36.230Z,3.07
2023-04-11T09:44:03.846Z,2.60
2023-04-11T09:46:31.423Z,2.30
2023-04-11T09:49:01.459Z,2.40
2023-04-11T09:51:36.577Z,2.30
2023-04-11T09:54:05.708Z,2.30
2023-04-11T09:56:34.374Z,2.30
2023-04-11T09:59:03.999Z,2.20
2023-04-11T10:01:32.453Z,2.30
2023-04-11T10:04:01.221Z,2.33
2023-04-11T10:06:39.143Z,2.57
2023-04-11T10:09:13.369Z,2.60
2023-04-11T10:11:45.298Z,2.70
2023-04-11T10:14:37.350Z,2.63
2023-04-11T10:17:23.381Z,2.60
2023-04-11T10:19:57.012Z,2.67
2023-04-11T10:22:43.116Z,2.60
2023-04-11T10:25:21.048Z,2.60
2023-04-11T10:27:54.772Z,2.70
2023-04-11T10:30:40.395Z,2.70
2023-04-11T10:33:17.311Z,2.67
2023-04-11T10:36:03.548Z,2.80
2023-04-11T10:38:49.023Z,2.50
2023-04-11T10:41:17.654Z,2.40
2023-04-11T10:43:47.189Z,2.73
2023-04-11T10:46:26.401Z,2.77
2023-04-11T10:49:05.526Z,2.80
2023-04-11T10:51:34.286Z,2.70
2023-04-11T10:54:01.988Z,2.80
2023-04-11T10:56:51.390Z,2.27
2023-04-11T10:59:31.716Z,2.20
2023-04-11T11:02:01.443Z,2.20
2023-04-11T11:04:39.670Z,2.30
2023-04-11T11:07:13.658Z,2.30
2023-04-11T11:09:41.313Z,2.20
2023-04-11T11:12:14.943Z,2.20
2023-04-11T11:14:47.148Z,2.30
2023-04-11T11:17:16.350Z,2.33
2023-04-11T11:19:48.192Z,2.37
2023-04-11T11:22:16.995Z,2.50
2023-04-11T11:24:45.178Z,2.63
2023-04-11T11:27:23.966Z,2.50
2023-04-11T11:29:52.267Z,2.40
2023-04-11T11:32:28.100Z,2.20
2023-04-11T11:34:55.487Z,2.20
2023-04-11T11:37:23.119Z,2.10
2023-04-11T11:39:51.244Z,2.20
2023-04-11T11:42:18.914Z,2.10
2023-04-11T11:44:46.161Z,2.13
2023-04-11T11:47:18.032Z,2.13
2023-04-11T11:49:54.656Z,2.60
2023-04-11T11:52:43.261Z,2.67
2023-04-11T11:55:19.537Z,2.20
2023-04-11T11:57:49.542Z,1.93
2023-04-11T12:00:26.998Z,1.93
2023-04-11T12:02:56.891Z,2.00
2023-04-11T12:05:32.961Z,2.17
2023-04-11T12:08:05.831Z,2.20
2023-04-11T12:10:40.498Z,2.10
2023-04-11T12:13:16.319Z,2.10
2023-04-11T12:15:50.443Z,2.00
2023-04-11T12:18:27.659Z,2.00
2023-04-11T12:20:55.566Z,2.00
2023-04-11T12:23:23.508Z,2.20
2023-04-11T12:25:51.271Z,2.20
2023-04-11T12:28:21.355Z,2.50
2023-04-11T12:30:49.041Z,2.30
2023-04-11T12:33:17.801Z,2.23
2023-04-11T12:35:45.979Z,2.30
2023-04-11T12:38:16.582Z,2.27
2023-04-11T12:40:46.269Z,2.20
2023-04-11T12:43:13.861Z,2.20
2023-04-11T12:45:44.234Z,2.17
2023-04-11T12:48:11.330Z,2.17
2023-04-11T12:50:39.393Z,2.20
2023-04-11T12:53:06.507Z,2.30
2023-04-11T12:55:36.710Z,2.20
2023-04-11T12:58:04.261Z,2.40
2023-04-11T13:00:31.282Z,2.30
2023-04-11T13:02:58.954Z,2.40
2023-04-11T13:05:27.041Z,2.40
2023-04-11T13:07:54.154Z,2.40
2023-04-11T13:10:21.729Z,2.43
2023-04-11T13:12:53.000Z,2.67
2023-04-11T13:15:20.152Z,2.90
2023-04-11T13:17:47.753Z,2.63
2023-04-11T13:20:15.344Z,2.83
2023-04-11T13:22:43.281Z,2.70
2023-04-11T13:25:12.010Z,2.70
2023-04-11T13:27:40.051Z,2.40
2023-04-11T13:30:10.404Z,2.57
2023-04-11T13:32:38.561Z,2.60
2023-04-11T13:35:07.009Z,2.50
2023-04-11T13:37:34.217Z,2.53
2023-04-11T13:40:02.745Z,2.70
2023-04-11T13:42:29.862Z,2.57
2023-04-11T13:44:57.882Z,2.40
2023-04-11T13:47:25.443Z,2.37
2023-04-11T13:49:52.392Z,2.20
2023-04-11T13:52:19.558Z,2.20
2023-04-11T13:54:46.577Z,2.23
2023-04-11T13:57:14.147Z,2.17
2023-04-11T13:59:41.195Z,2.23
2023-04-11T14:02:08.880Z,2.20
2023-04-11T14:04:36.510Z,2.20
2023-04-11T14:07:04.009Z,2.40
2023-04-11T14:09:32.081Z,2.23
2023-04-11T14:12:01.259Z,2.27
2023-04-11T14:14:28.296Z,2.10
2023-04-11T14:16:55.514Z,2.00
2023-04-11T14:19:24.716Z,2.13
2023-04-11T14:21:52.794Z,2.10
2023-04-11T14:24:22.063Z,2.17
2023-04-11T14:26:50.060Z,2.10
2023-04-11T14:29:17.793Z,2.10
2023-04-11T14:31:45.432Z,2.10
2023-04-11T14:34:12.591Z,2.20
2023-04-11T14:36:40.441Z,2.10
2023-04-11T14:39:08.084Z,2.13
2023-04-11T14:41:35.628Z,2.20
2023-04-11T14:44:02.762Z,2.10
2023-04-11T14:46:30.396Z,2.10
2023-04-11T14:49:01.920Z,2.20
2023-04-11T14:51:29.664Z,2.20
2023-04-11T14:53:57.038Z,2.30
2023-04-11T14:56:26.361Z,2.20
2023-04-11T14:58:54.302Z,2.30
2023-04-11T15:01:21.665Z,2.40
2023-04-11T15:03:49.250Z,2.50
2023-04-11T15:06:16.399Z,2.53
2023-04-11T15:08:43.844Z,2.40
2023-04-11T15:11:11.339Z,2.50
2023-04-11T15:13:38.957Z,2.33
2023-04-11T15:16:08.163Z,2.40
2023-04-11T15:18:35.891Z,2.40
2023-04-11T15:21:03.374Z,2.50
2023-04-11T15:23:31.530Z,2.40
2023-04-11T15:26:02.842Z,2.40
2023-04-11T15:28:35.863Z,2.70
2023-04-11T15:31:07.211Z,2.60
2023-04-11T15:33:34.847Z,2.67
2023-04-11T15:36:03.011Z,2.57
2023-04-11T15:38:30.505Z,2.63
2023-04-11T15:40:59.773Z,2.90
2023-04-11T15:43:27.188Z,2.80
2023-04-11T15:45:54.686Z,2.60
2023-04-11T15:48:21.897Z,2.60
2023-04-11T15:50:49.139Z,2.70
2023-04-11T15:53:17.261Z,2.43
2023-04-11T15:55:46.764Z,2.50
2023-04-11T15:58:14.278Z,2.43
2023-04-11T16:00:44.670Z,2.37
2023-04-11T16:03:11.970Z,2.30
2023-04-11T16:05:42.854Z,2.30
2023-04-11T16:08:10.494Z,2.40
2023-04-11T16:10:37.543Z,2.50
2023-04-11T16:13:04.787Z,2.47
2023-04-11T16:15:32.391Z,2.50
2023-04-11T16:17:59.569Z,2.60
2023-04-11T16:20:26.972Z,2.57
2023-04-11T16:22:54.453Z,2.60
2023-04-11T16:25:21.816Z,2.60
2023-04-11T16:27:51.002Z,2.60
2023-04-11T16:30:18.884Z,2.47
2023-04-11T16:32:46.589Z,2.70
2023-04-11T16:35:14.057Z,2.57
2023-04-11T16:37:41.545Z,2.80
2023-04-11T16:40:11.403Z,2.50
2023-04-11T16:42:39.893Z,2.60
2023-04-11T16:45:09.690Z,2.57
2023-04-11T16:47:37.527Z,2.53
2023-04-11T16:50:05.851Z,2.60
2023-04-11T16:52:34.308Z,2.57
2023-04-11T16:55:03.323Z,2.50
2023-04-11T16:57:33.063Z,2.57
2023-04-11T17:00:00.727Z,2.67
2023-04-11T17:02:27.812Z,2.70
2023-04-11T17:04:55.658Z,2.70
2023-04-11T17:07:23.141Z,2.70
2023-04-11T17:09:50.256Z,2.60
2023-04-11T17:12:18.021Z,2.80
2023-04-11T17:14:47.416Z,2.70
2023-04-11T17:17:14.409Z,2.53
2023-04-11T17:19:42.636Z,2.70
2023-04-11T17:22:11.600Z,2.80
2023-04-11T17:24:38.920Z,2.80
2023-04-11T17:27:06.652Z,2.57
2023-04-11T17:29:34.184Z,2.80
2023-04-11T17:32:03.927Z,2.70
2023-04-11T17:34:31.304Z,2.63
2023-04-11T17:36:58.767Z,3.00
2023-04-11T17:39:26.782Z,2.70
2023-04-11T17:41:54.364Z,2.60
2023-04-11T17:44:21.848Z,2.70
2023-04-11T17:46:49.422Z,2.80
2023-04-11T17:49:16.929Z,2.83
2023-04-11T17:51:49.258Z,2.80
2023-04-11T17:54:25.615Z,2.80
2023-04-11T17:56:53.088Z,2.80
2023-04-11T17:59:20.992Z,2.77
2023-04-11T18:01:48.131Z,2.70
2023-04-11T18:04:15.830Z,2.60
2023-04-11T18:06:46.018Z,2.73
2023-04-11T18:09:15.555Z,2.60
2023-04-11T18:11:43.778Z,2.80
2023-04-11T18:14:11.370Z,2.70
2023-04-11T18:16:39.915Z,2.70
2023-04-11T18:19:07.113Z,2.80
2023-04-11T18:21:34.185Z,2.67
2023-04-11T18:24:01.725Z,2.70
2023-04-11T18:26:29.225Z,2.77
2023-04-11T18:28:56.725Z,2.70
2023-04-11T18:31:24.251Z,2.80
2023-04-11T18:33:51.722Z,2.83
2023-04-11T18:36:19.080Z,2.70
2023-04-11T18:38:47.254Z,2.80
2023-04-11T18:41:16.285Z,2.80
2023-04-11T18:43:43.468Z,2.80
2023-04-11T18:46:11.103Z,2.80
2023-04-11T18:48:38.811Z,2.80
2023-04-11T18:51:06.536Z,2.80
2023-04-11T18:53:36.281Z,2.80
2023-04-11T18:56:03.465Z,2.90
2023-04-11T18:58:33.438Z,2.90
2023-04-11T19:01:13.996Z,2.80
2023-04-11T19:03:43.511Z,2.80
2023-04-11T19:06:11.590Z,2.80
2023-04-11T19:08:39.197Z,2.80
2023-04-11T19:11:06.721Z,2.90
2023-04-11T19:13:34.182Z,2.90
2023-04-11T19:16:01.519Z,2.80
2023-04-11T19:18:29.040Z,2.90
2023-04-11T19:20:56.477Z,2.90
2023-04-11T19:23:23.668Z,2.90
2023-04-11T19:25:51.713Z,2.90
2023-04-11T19:28:19.158Z,2.80
2023-04-11T19:30:47.730Z,2.97
2023-04-11T19:33:15.304Z,3.07
2023-04-11T19:35:43.378Z,2.90
2023-04-11T19:38:11.673Z,3.00
2023-04-11T19:40:38.761Z,3.03
2023-04-11T19:43:07.466Z,2.90
2023-04-11T19:45:35.008Z,2.97
2023-04-11T19:48:02.096Z,2.97
2023-04-11T19:50:30.216Z,2.90
2023-04-11T19:52:57.338Z,2.90
2023-04-11T19:55:25.193Z,2.93
2023-04-11T19:57:52.800Z,2.90
2023-04-11T20:00:20.352Z,3.00
2023-04-11T20:02:48.310Z,2.90
2023-04-11T20:05:19.072Z,3.00
2023-04-11T20:07:47.790Z,2.90
2023-04-11T20:10:17.067Z,2.90
2023-04-11T20:12:44.648Z,3.10
2023-04-11T20:15:12.143Z,3.00
2023-04-11T20:17:39.767Z,3.00
2023-04-11T20:20:08.864Z,3.00
2023-04-11T20:22:38.202Z,3.03
2023-04-11T20:25:11.675Z,3.03
2023-04-11T20:27:40.728Z,3.10
2023-04-11T20:30:12.138Z,3.07
2023-04-11T20:32:40.932Z,3.00
2023-04-11T20:35:09.739Z,3.10
2023-04-11T20:37:37.892Z,3.10
2023-04-11T20:40:07.207Z,3.10
2023-04-11T20:42:45.578Z,3.00
2023-04-11T20:45:16.706Z,3.03
2023-04-11T20:47:46.092Z,3.10
2023-04-11T20:50:15.697Z,3.10
2023-04-11T20:52:47.351Z,3.07
2023-04-11T20:55:17.350Z,3.03
2023-04-11T20:57:45.140Z,3.10
2023-04-11T21:00:14.663Z,3.13
2023-04-11T21:02:45.619Z,3.00
2023-04-11T21:05:20.108Z,3.00
2023-04-11T21:07:47.673Z,3.07
2023-04-11T21:10:15.630Z,3.03
2023-04-11T21:12:43.413Z,3.07
2023-04-11T21:15:11.670Z,3.00
2023-04-11T21:17:39.424Z,3.00
2023-04-11T21:20:17.457Z,3.00
2023-04-11T21:22:49.601Z,3.10
2023-04-11T21:25:17.228Z,3.00
2023-04-11T21:27:46.037Z,3.03
2023-04-11T21:30:14.448Z,3.10
2023-04-11T21:32:41.910Z,3.07
2023-04-11T21:35:11.655Z,3.00
2023-04-11T21:37:39.724Z,3.03
2023-04-11T21:40:08.020Z,3.07
2023-04-11T21:42:35.658Z,3.10
2023-04-11T21:45:03.293Z,3.07
2023-04-11T21:47:30.516Z,3.03
2023-04-11T21:49:57.965Z,3.00
2023-04-11T21:52:25.596Z,3.00
2023-04-11T21:54:52.697Z,3.10
2023-04-11T21:57:19.754Z,3.10
2023-04-11T21:59:46.912Z,3.17
2023-04-11T22:02:14.003Z,3.10
2023-04-11T22:04:55.734Z,3.13
2023-04-11T22:07:32.429Z,3.10
2023-04-11T22:10:09.079Z,3.10
2023-04-11T22:12:37.250Z,3.17
2023-04-11T22:15:06.451Z,3.10
2023-04-11T22:17:33.944Z,3.13
2023-04-11T22:20:01.671Z,3.17
2023-04-11T22:22:32.217Z,3.13
2023-04-11T22:25:00.238Z,3.10
2023-04-11T22:27:27.504Z,3.13
2023-04-11T22:29:59.685Z,3.10
2023-04-11T22:32:27.156Z,3.10
2023-04-11T22:34:54.212Z,3.13
2023-04-11T22:37:21.698Z,3.13
2023-04-11T22:39:49.801Z,3.13
2023-04-11T22:42:17.328Z,3.20
2023-04-11T22:44:44.377Z,3.17
2023-04-11T22:47:13.614Z,3.20
2023-04-11T22:49:41.017Z,3.20
2023-04-11T22:52:13.845Z,3.20
2023-04-11T22:54:42.390Z,3.10
2023-04-11T22:57:10.019Z,3.30
2023-04-11T22:59:37.623Z,3.13
2023-04-11T23:02:04.677Z,3.17
2023-04-11T23:04:32.551Z,3.20
2023-04-11T23:07:00.034Z,2.97
2023-04-11T23:09:28.016Z,3.20
2023-04-11T23:11:55.471Z,3.17
2023-04-11T23:14:22.731Z,3.10
2023-04-11T23:16:50.341Z,3.10
2023-04-11T23:19:18.777Z,3.17
2023-04-11T23:21:46.486Z,3.10
2023-04-11T23:24:13.920Z,3.07
2023-04-11T23:26:41.027Z,3.20
2023-04-11T23:29:08.671Z,3.10
2023-04-11T23:31:35.816Z,3.20
2023-04-11T23:34:03.293Z,3.20
2023-04-11T23:36:30.737Z,3.10
2023-04-11T23:38:58.187Z,3.10
2023-04-11T23:41:25.262Z,3.13
2023-04-11T23:43:52.899Z,3.07
2023-04-11T23:46:20.259Z,3.17
2023-04-11T23:48:47.353Z,3.20
2023-04-11T23:51:15.274Z,3.10
2023-04-11T23:53:43.650Z,3.07
2023-04-11T23:56:11.686Z,3.10
2023-04-11T23:58:39.152Z,3.20
